Terminal Aerodrome Forecast
Issued by NWS Charleston, WV

Current Version | Previous Version | Graphics & Text | Print | Product List | Glossary On
Versions: 1 2 3 4 5 6 7 8 9 10 11 12 13 14 15 16 17 18 19 20 21 22 23 24 25
034
FTUS41 KRLX 180109 AAB
TAFEKN
TAF AMD
KEKN 180109Z 1801/1824 29007KT P6SM BKN025
     FM180200 28007KT P6SM BKN035
     FM180400 28007KT P6SM SKC
     FM180900 VRB03KT P6SM SKC
     FM181600 25006KT P6SM BKN040
     FM181900 24006KT P6SM BKN025
     FM182100 23007KT P6SM BKN035=

USA.gov is the U.S. government's official web portal to all federal, state and local government web resources and services.